Time;durP1;ratioP1;P1;durP2;ratioP2;P2;SDS_P1;SDS_P2;PMS_P1;PMS_P2;Temp;Humidity;BMP_temperature;BMP_pressure;BME280_temperature;BME280_humidity;BME280_pressure;Samples;Min_cycle;Max_cycle;Signal;HPM_P1;HPM_P2
2022/09/15 00:01:39;;;;;;;;;;;;;;;21.28;76.40;96629.31;576046;245;65089;-70
2022/09/15 00:04:07;;;;;;;;;;;;;;;21.28;76.39;96631.19;576088;246;67096;-70
2022/09/15 00:06:35;;;;;;;;;;;;;;;21.29;76.35;96636.23;576114;246;65193;-70
2022/09/15 00:09:03;;;;;;;;;;;;;;;21.28;76.25;96625.84;576116;246;62800;-70
2022/09/15 00:11:32;;;;;;;;;;;;;;;21.29;76.25;96632.77;576064;246;67358;-70
2022/09/15 00:14:01;;;;;;;;;;;;;;;21.29;76.17;96635.45;576087;246;66912;-70
2022/09/15 00:16:29;;;;;;;;;;;;;;;21.28;76.17;96634.66;576062;246;63088;-70
2022/09/15 00:18:57;;;;;;;;;;;;;;;21.29;76.14;96628.22;576091;246;67608;-70
2022/09/15 00:21:27;;;;;;;;;;;;;;;21.28;76.12;96631.98;576121;246;65016;-70
2022/09/15 00:23:54;;;;;;;;;;;;;;;21.28;76.17;96644.55;576084;246;63227;-70
2022/09/15 00:26:23;;;;;;;;;;;;;;;21.30;76.14;96637.03;576072;246;67471;-72
2022/09/15 00:28:51;;;;;;;;;;;;;;;21.29;76.17;96635.45;576113;246;64793;-72
2022/09/15 00:31:20;;;;;;;;;;;;;;;21.29;76.14;96646.14;576046;246;62977;-70
2022/09/15 00:33:48;;;;;;;;;;;;;;;21.28;76.14;96648.02;576122;246;67487;-70
2022/09/15 00:36:16;;;;;;;;;;;;;;;21.29;76.16;96654.16;576067;246;67265;-70
2022/09/15 00:38:44;;;;;;;;;;;;;;;21.28;76.12;96645.34;576074;246;64936;-70
2022/09/15 00:41:13;;;;;;;;;;;;;;;21.28;76.17;96647.23;576053;246;67262;-70
2022/09/15 00:43:42;;;;;;;;;;;;;;;21.29;76.25;96654.95;576050;246;67289;-70
2022/09/15 00:46:09;;;;;;;;;;;;;;;21.28;76.28;96663.27;576089;246;65106;-70
2022/09/15 00:48:38;;;;;;;;;;;;;;;21.28;76.31;96657.92;576076;246;67431;-70
2022/09/15 00:51:07;;;;;;;;;;;;;;;21.29;76.36;96664.84;576071;246;67234;-70
2022/09/15 00:53:36;;;;;;;;;;;;;;;21.29;76.35;96662.17;576093;246;64808;-70
2022/09/15 00:56:04;;;;;;;;;;;;;;;21.28;76.35;96657.92;576105;246;67170;-70
2022/09/15 00:58:33;;;;;;;;;;;;;;;21.28;76.36;96665.94;576091;246;64970;-70
2022/09/15 01:01:02;;;;;;;;;;;;;;;21.28;76.33;96665.94;576076;242;62991;-70
2022/09/15 01:03:31;;;;;;;;;;;;;;;21.29;76.33;96664.84;576106;246;67334;-70
2022/09/15 01:06:01;;;;;;;;;;;;;;;21.29;76.21;96662.17;576072;246;67026;-71
2022/09/15 01:08:33;;;;;;;;;;;;;;;21.28;76.29;96668.61;575953;244;64907;-72
2022/09/15 01:11:01;;;;;;;;;;;;;;;21.27;76.29;96659.77;576052;242;67270;-72
2022/09/15 01:13:32;;;;;;;;;;;;;;;21.27;76.31;96662.44;576135;246;67170;-72
2022/09/15 01:16:00;;;;;;;;;;;;;;;21.27;76.31;96657.09;576113;246;65259;-72
2022/09/15 01:18:33;;;;;;;;;;;;;;;21.29;76.50;96654.16;576027;244;67316;-72
2022/09/15 01:21:05;;;;;;;;;;;;;;;21.26;76.60;96646.70;576106;246;67232;-72
2022/09/15 01:23:40;;;;;;;;;;;;;;;21.28;76.69;96655.25;576044;246;64954;-72
2022/09/15 01:26:09;;;;;;;;;;;;;;;21.27;76.74;96651.75;575315;244;67235;-72
2022/09/15 01:28:47;;;;;;;;;;;;;;;21.28;76.83;96657.92;576146;246;67200;-71
2022/09/15 01:31:19;;;;;;;;;;;;;;;21.27;76.85;96650.95;575752;245;62887;-72
2022/09/15 01:33:48;;;;;;;;;;;;;;;21.27;76.83;96656.30;576059;246;64960;-70
2022/09/15 01:36:17;;;;;;;;;;;;;;;21.27;76.89;96646.41;575988;244;67320;-70
2022/09/15 01:39:04;;;;;;;;;;;;;;;21.28;76.96;96652.58;575940;244;62815;-70
2022/09/15 01:41:36;;;;;;;;;;;;;;;21.27;76.95;96661.65;576052;243;65066;-70
2022/09/15 01:44:14;;;;;;;;;;;;;;;21.26;76.95;96652.05;576143;246;64657;-70
2022/09/15 01:46:45;;;;;;;;;;;;;;;21.26;77.00;96650.16;576129;246;65416;-70
2022/09/15 01:49:15;;;;;;;;;;;;;;;21.27;77.02;96661.65;576099;246;67314;-70
2022/09/15 01:51:43;;;;;;;;;;;;;;;21.26;77.05;96660.06;575973;244;67535;-72
2022/09/15 01:54:11;;;;;;;;;;;;;;;21.26;77.03;96662.73;576094;246;64002;-72
2022/09/15 01:56:40;;;;;;;;;;;;;;;21.27;77.08;96662.44;576084;246;65130;-72
2022/09/15 01:59:08;;;;;;;;;;;;;;;21.26;77.13;96657.39;576129;246;67311;-72
2022/09/15 02:01:41;;;;;;;;;;;;;;;21.25;77.17;96659.27;576065;245;63046;-72
2022/09/15 02:04:14;;;;;;;;;;;;;;;21.27;77.12;96659.77;576117;242;64904;-72
2022/09/15 02:06:50;;;;;;;;;;;;;;;21.25;77.14;96655.78;576046;244;67108;-72
2022/09/15 02:09:20;;;;;;;;;;;;;;;21.26;77.16;96654.72;576100;246;65100;-72
2022/09/15 02:11:51;;;;;;;;;;;;;;;21.25;77.18;96656.60;576029;244;66949;-72
2022/09/15 02:14:19;;;;;;;;;;;;;;;21.27;77.15;96653.63;576089;244;64876;-72
2022/09/15 02:16:48;;;;;;;;;;;;;;;21.25;77.18;96661.13;575905;245;63028;-72
2022/09/15 02:19:20;;;;;;;;;;;;;;;21.25;77.16;96659.27;576083;246;67656;-72
2022/09/15 02:21:52;;;;;;;;;;;;;;;21.26;77.19;96665.41;576089;246;65023;-72
2022/09/15 02:24:22;;;;;;;;;;;;;;;21.25;77.19;96659.27;576087;246;64950;-72
2022/09/15 02:26:50;;;;;;;;;;;;;;;21.25;77.13;96658.45;575975;244;67201;-72
2022/09/15 02:29:20;;;;;;;;;;;;;;;21.26;77.16;96662.73;576143;246;66947;-72
2022/09/15 02:31:48;;;;;;;;;;;;;;;21.25;77.17;96658.45;576083;246;65095;-72
2022/09/15 02:34:17;;;;;;;;;;;;;;;21.25;77.12;96663.80;576098;246;67113;-72
2022/09/15 02:36:46;;;;;;;;;;;;;;;21.24;77.08;96657.66;576104;246;65060;-72
2022/09/15 02:39:15;;;;;;;;;;;;;;;21.25;77.05;96655.78;576066;246;65056;-72
2022/09/15 02:41:43;;;;;;;;;;;;;;;21.24;76.96;96657.66;576087;246;67194;-72
2022/09/15 02:44:10;;;;;;;;;;;;;;;21.24;76.84;96657.66;576104;246;67025;-70
2022/09/15 02:46:38;;;;;;;;;;;;;;;21.25;76.94;96653.11;576075;246;64873;-70
2022/09/15 02:49:06;;;;;;;;;;;;;;;21.25;77.08;96643.23;576073;246;67363;-70
2022/09/15 02:51:34;;;;;;;;;;;;;;;21.25;77.08;96637.07;576095;246;65082;-70
2022/09/15 02:54:02;;;;;;;;;;;;;;;21.25;77.09;96631.73;576110;246;65032;-70
2022/09/15 02:56:29;;;;;;;;;;;;;;;21.24;77.15;96633.61;576093;246;64862;-70
2022/09/15 02:58:57;;;;;;;;;;;;;;;21.24;77.12;96638.16;576094;246;64694;-70
2022/09/15 03:01:27;;;;;;;;;;;;;;;21.24;77.07;96636.28;576042;245;63014;-70
2022/09/15 03:03:54;;;;;;;;;;;;;;;21.24;77.08;96641.63;576097;246;67432;-70
2022/09/15 03:06:23;;;;;;;;;;;;;;;21.25;77.08;96639.74;576069;246;67247;-70
2022/09/15 03:08:52;;;;;;;;;;;;;;;21.24;77.07;96636.28;576078;246;64973;-70
2022/09/15 03:11:21;;;;;;;;;;;;;;;21.24;77.08;96630.94;575997;244;67226;-70
2022/09/15 03:13:50;;;;;;;;;;;;;;;21.24;77.15;96635.48;576060;246;64798;-70
2022/09/15 03:16:17;;;;;;;;;;;;;;;21.24;77.12;96638.95;576063;246;70184;-70
2022/09/15 03:18:45;;;;;;;;;;;;;;;21.24;77.08;96646.97;576075;246;67481;-70
2022/09/15 03:21:13;;;;;;;;;;;;;;;21.25;77.09;96647.77;576140;246;66908;-72
2022/09/15 03:23:41;;;;;;;;;;;;;;;21.24;77.02;96638.95;576122;246;64977;-72
2022/09/15 03:26:09;;;;;;;;;;;;;;;21.23;77.05;96645.39;576093;246;66638;-72
2022/09/15 03:28:37;;;;;;;;;;;;;;;21.25;77.12;96647.77;576091;246;64552;-72
2022/09/15 03:31:06;;;;;;;;;;;;;;;21.24;77.10;96654.98;576078;246;62975;-72
2022/09/15 03:33:33;;;;;;;;;;;;;;;21.25;77.08;96658.45;576141;246;65051;-72
2022/09/15 03:36:01;;;;;;;;;;;;;;;21.24;77.19;96663.01;576099;246;64725;-72
2022/09/15 03:38:29;;;;;;;;;;;;;;;21.24;77.17;96656.87;576102;246;64899;-72
2022/09/15 03:40:57;;;;;;;;;;;;;;;21.24;77.22;96660.33;576090;246;66810;-72
2022/09/15 03:43:26;;;;;;;;;;;;;;;21.24;77.16;96663.01;576093;246;64607;-72
2022/09/15 03:45:53;;;;;;;;;;;;;;;21.24;77.17;96656.87;576129;246;65038;-72
2022/09/15 03:48:21;;;;;;;;;;;;;;;21.23;77.25;96653.41;576103;246;67460;-72
2022/09/15 03:50:50;;;;;;;;;;;;;;;21.24;77.32;96651.52;576081;246;67154;-72
2022/09/15 03:53:17;;;;;;;;;;;;;;;21.24;77.33;96656.87;576084;246;62967;-72
2022/09/15 03:55:45;;;;;;;;;;;;;;;21.24;77.33;96651.52;576061;246;67147;-72
2022/09/15 03:58:13;;;;;;;;;;;;;;;21.24;77.43;96656.87;576116;246;67068;-72
2022/09/15 04:00:40;;;;;;;;;;;;;;;21.23;77.44;96648.06;576054;245;64878;-72
2022/09/15 04:03:08;;;;;;;;;;;;;;;21.23;77.39;96650.73;576071;246;64992;-72
2022/09/15 04:05:36;;;;;;;;;;;;;;;21.23;77.41;96649.94;576047;246;67173;-72
2022/09/15 04:08:04;;;;;;;;;;;;;;;21.23;77.40;96655.28;576049;246;65182;-72
2022/09/15 04:10:32;;;;;;;;;;;;;;;21.23;77.42;96649.94;576096;246;64906;-72
2022/09/15 04:12:59;;;;;;;;;;;;;;;21.23;77.44;96655.28;576109;246;66797;-72
2022/09/15 04:15:27;;;;;;;;;;;;;;;21.22;77.43;96654.47;576079;246;65155;-72
2022/09/15 04:17:54;;;;;;;;;;;;;;;21.23;77.51;96655.28;576057;246;67106;-72
2022/09/15 04:20:22;;;;;;;;;;;;;;;21.23;77.52;96661.42;576062;246;65474;-72
2022/09/15 04:22:49;;;;;;;;;;;;;;;21.23;77.50;96657.95;576120;246;62899;-72
2022/09/15 04:25:17;;;;;;;;;;;;;;;21.23;77.53;96653.41;576078;246;65031;-72
2022/09/15 04:27:44;;;;;;;;;;;;;;;21.22;77.53;96649.12;576062;246;65138;-72
2022/09/15 04:30:12;;;;;;;;;;;;;;;21.23;77.60;96655.28;576108;246;63060;-72
2022/09/15 04:32:40;;;;;;;;;;;;;;;21.22;77.58;96649.12;576115;246;67221;-72
2022/09/15 04:35:07;;;;;;;;;;;;;;;21.23;77.57;96649.94;576091;246;64994;-72
2022/09/15 04:37:35;;;;;;;;;;;;;;;21.23;77.53;96657.95;576164;246;65261;-72
2022/09/15 04:40:02;;;;;;;;;;;;;;;21.22;77.53;96659.81;576095;246;66911;-71
2022/09/15 04:42:30;;;;;;;;;;;;;;;21.22;77.58;96646.45;576107;246;66947;-72
2022/09/15 04:44:58;;;;;;;;;;;;;;;21.22;77.55;96641.10;576073;246;62848;-72
2022/09/15 04:47:25;;;;;;;;;;;;;;;21.22;77.55;96648.33;576092;246;65325;-71
2022/09/15 04:49:53;;;;;;;;;;;;;;;21.22;77.54;96649.12;576138;246;66998;-72
2022/09/15 04:52:20;;;;;;;;;;;;;;;21.22;77.54;96654.47;576117;246;65044;-72
2022/09/15 04:54:48;;;;;;;;;;;;;;;21.22;77.49;96654.47;576102;246;65933;-72
2022/09/15 04:57:15;;;;;;;;;;;;;;;21.22;77.47;96651.00;576105;246;67023;-72
2022/09/15 04:59:43;;;;;;;;;;;;;;;21.21;77.52;96655.55;576087;246;62841;-72
2022/09/15 05:02:10;;;;;;;;;;;;;;;21.20;77.53;96648.63;576050;245;67259;-71
2022/09/15 05:04:38;;;;;;;;;;;;;;;21.19;77.49;96648.89;576108;246;65199;-72
2022/09/15 05:07:05;;;;;;;;;;;;;;;21.22;77.54;96656.34;576091;246;62936;-72
2022/09/15 05:09:33;;;;;;;;;;;;;;;21.22;77.58;96640.31;575888;246;64987;-72
2022/09/15 05:12:00;;;;;;;;;;;;;;;21.21;77.57;96636.84;576087;246;66902;-70
2022/09/15 05:14:28;;;;;;;;;;;;;;;21.22;77.58;96632.30;576141;246;63694;-70
2022/09/15 05:16:56;;;;;;;;;;;;;;;21.21;77.63;96628.03;576105;246;64907;-70
2022/09/15 05:19:24;;;;;;;;;;;;;;;21.21;77.61;96622.70;576086;246;64890;-70
2022/09/15 05:21:52;;;;;;;;;;;;;;;21.21;77.58;96633.38;576110;246;65008;-70
2022/09/15 05:24:19;;;;;;;;;;;;;;;21.21;77.51;96636.84;576088;246;67289;-70
2022/09/15 05:26:47;;;;;;;;;;;;;;;21.21;77.48;96636.05;576175;246;66750;-71
2022/09/15 05:29:15;;;;;;;;;;;;;;;21.22;77.55;96629.63;576063;246;63053;-72
2022/09/15 05:31:42;;;;;;;;;;;;;;;21.21;77.57;96622.70;576105;246;67308;-72
2022/09/15 05:34:10;;;;;;;;;;;;;;;21.21;77.56;96625.37;576078;246;65481;-72
2022/09/15 05:36:38;;;;;;;;;;;;;;;21.21;77.61;96620.02;576085;246;65057;-71
2022/09/15 05:39:05;;;;;;;;;;;;;;;21.21;77.60;96620.02;576093;246;67285;-71
2022/09/15 05:41:33;;;;;;;;;;;;;;;21.22;77.58;96616.26;576114;246;67093;-71
2022/09/15 05:44:00;;;;;;;;;;;;;;;21.20;77.62;96613.88;576053;246;63182;-72
2022/09/15 05:46:28;;;;;;;;;;;;;;;21.21;77.61;96609.33;565834;246;70645;-72
2022/09/15 05:48:57;;;;;;;;;;;;;;;21.21;77.62;96606.66;565861;246;68356;-71
2022/09/15 05:51:25;;;;;;;;;;;;;;;21.21;77.61;96603.98;565819;246;68786;-72
2022/09/15 05:53:53;;;;;;;;;;;;;;;21.20;77.70;96602.41;565823;246;68567;-72
2022/09/15 05:56:20;;;;;;;;;;;;;;;21.20;77.76;96595.17;565804;246;69767;-74
2022/09/15 05:58:48;;;;;;;;;;;;;;;21.20;77.80;96591.72;575801;246;64991;-71
2022/09/15 06:01:23;;;;;;;;;;;;;;;21.20;77.26;96595.17;578481;243;65508;-72
2022/09/15 06:03:51;;;;;;;;;;;;;;;21.20;78.09;96597.85;583174;243;67039;-71
2022/09/15 06:06:20;;;;;;;;;;;;;;;21.21;77.75;96593.30;583112;243;65138;-71
2022/09/15 06:08:49;;;;;;;;;;;;;;;21.21;77.63;96598.64;583094;243;64974;-68
2022/09/15 06:11:18;;;;;;;;;;;;;;;21.21;77.52;96601.31;582474;240;66968;-71
2022/09/15 06:13:47;;;;;;;;;;;;;;;21.21;77.45;96599.44;580958;244;63003;-73
2022/09/15 06:16:18;;;;;;;;;;;;;;;21.21;76.81;96590.62;580990;244;67170;-71
2022/09/15 06:18:46;;;;;;;;;;;;;;;21.20;76.25;96579.14;580981;244;65072;-70
2022/09/15 06:21:16;;;;;;;;;;;;;;;21.22;76.73;96576.17;580995;244;65020;-70
2022/09/15 06:23:43;;;;;;;;;;;;;;;21.22;77.48;96579.64;580966;244;64891;-69
2022/09/15 06:26:12;;;;;;;;;;;;;;;21.23;77.88;96583.13;580972;244;65009;-69
2022/09/15 06:28:43;;;;;;;;;;;;;;;21.22;77.85;96573.50;580757;244;62926;-68
2022/09/15 06:31:12;;;;;;;;;;;;;;;21.22;77.82;96576.17;580970;244;65057;-69
2022/09/15 06:33:43;;;;;;;;;;;;;;;21.22;77.66;96563.60;580964;244;67153;-69
2022/09/15 06:36:12;;;;;;;;;;;;;;;21.23;75.95;96559.87;580870;244;63095;-69
2022/09/15 06:38:40;;;;;;;;;;;;;;;21.24;76.23;96561.45;580834;244;64958;-69
2022/09/15 06:41:07;;;;;;;;;;;;;;;21.24;76.40;96564.13;580987;244;64780;-70
2022/09/15 06:43:35;;;;;;;;;;;;;;;21.24;76.23;96561.45;580969;244;62925;-69
2022/09/15 06:46:10;;;;;;;;;;;;;;;21.24;76.37;96556.11;581032;244;65089;-69
2022/09/15 06:48:38;;;;;;;;;;;;;;;21.25;76.71;96552.38;580778;244;67412;-69
2022/09/15 06:51:07;;;;;;;;;;;;;;;21.26;76.64;96553.16;580942;244;65021;-69
2022/09/15 06:53:36;;;;;;;;;;;;;;;21.25;76.63;96547.03;580959;244;67293;-69
2022/09/15 06:56:05;;;;;;;;;;;;;;;21.26;76.54;96555.84;580899;244;66923;-71
2022/09/15 06:58:34;;;;;;;;;;;;;;;21.25;76.64;96555.05;580942;244;65041;-70
2022/09/15 07:01:02;;;;;;;;;;;;;;;21.25;76.72;96555.05;580278;244;67184;-67
2022/09/15 07:03:30;;;;;;;;;;;;;;;21.26;76.75;96547.81;578511;245;67269;-70
2022/09/15 07:05:58;;;;;;;;;;;;;;;21.28;76.76;96553.69;578609;245;65153;-70
2022/09/15 07:08:25;;;;;;;;;;;;;;;21.27;76.73;96552.86;578617;245;66943;-70
2022/09/15 07:10:53;;;;;;;;;;;;;;;21.26;76.71;96553.16;578612;245;64946;-70
2022/09/15 07:13:21;;;;;;;;;;;;;;;21.27;76.63;96554.75;577521;245;65171;-70
2022/09/15 07:15:51;;;;;;;;;;;;;;;21.26;76.71;96553.16;578941;245;65306;-70
2022/09/15 07:18:18;;;;;;;;;;;;;;;21.27;76.74;96549.40;578953;245;67070;-70
2022/09/15 07:20:46;;;;;;;;;;;;;;;21.27;76.83;96558.20;578936;245;63028;-70
2022/09/15 07:23:14;;;;;;;;;;;;;;;21.27;76.97;96557.42;578927;245;65056;-70
2022/09/15 07:25:44;;;;;;;;;;;;;;;21.28;77.01;96559.03;578955;245;64928;-70
2022/09/15 07:28:12;;;;;;;;;;;;;;;21.29;77.02;96555.27;578995;245;63086;-70
2022/09/15 07:30:41;;;;;;;;;;;;;;;21.28;77.02;96556.36;579002;245;66919;-70
2022/09/15 07:33:09;;;;;;;;;;;;;;;21.28;77.08;96557.15;578979;245;66919;-70
2022/09/15 07:35:43;;;;;;;;;;;;;;;21.27;77.18;96562.77;578957;243;65007;-69
2022/09/15 07:38:10;;;;;;;;;;;;;;;21.28;77.16;96556.36;578918;245;66920;-71
2022/09/15 07:40:38;;;;;;;;;;;;;;;21.29;77.16;96560.61;578985;245;67080;-71
2022/09/15 07:43:06;;;;;;;;;;;;;;;21.29;77.12;96563.28;578957;245;65203;-69
2022/09/15 07:45:34;;;;;;;;;;;;;;;21.30;77.38;96567.53;578975;245;66782;-72
2022/09/15 07:48:02;;;;;;;;;;;;;;;21.29;77.30;96574.77;578962;245;67155;-75
2022/09/15 07:50:30;;;;;;;;;;;;;;;21.30;77.42;96575.55;579296;242;65076;-71
2022/09/15 07:52:57;;;;;;;;;;;;;;;21.30;77.50;96575.55;584305;242;66953;-71
2022/09/15 07:55:25;;;;;;;;;;;;;;;21.31;77.64;96568.33;580527;242;64552;-70
2022/09/15 07:57:58;;;;;;;;;;;;;;;21.30;77.74;96567.53;578911;245;62821;-71
2022/09/15 08:00:26;;;;;;;;;;;;;;;21.31;77.75;96571.83;578909;245;65216;-71
2022/09/15 08:02:54;;;;;;;;;;;;;;;21.31;77.79;96563.80;579320;245;67308;-71
2022/09/15 08:05:26;;;;;;;;;;;;;;;21.32;77.84;96580.63;579415;245;63029;-70
2022/09/15 08:07:51;;;;;;;;;;;;;;;21.31;77.86;96569.15;579274;244;65147;-70
2022/09/15 08:10:19;;;;;;;;;;;;;;;21.33;77.91;96574.20;579402;245;67199;-70
2022/09/15 08:12:46;;;;;;;;;;;;;;;21.32;77.91;96588.66;579348;245;65265;-70
2022/09/15 08:15:14;;;;;;;;;;;;;;;21.32;77.91;96583.30;579402;245;67421;-70
2022/09/15 08:17:41;;;;;;;;;;;;;;;21.32;78.04;96578.75;579409;242;66979;-70
2022/09/15 08:20:10;;;;;;;;;;;;;;;21.32;78.16;96576.08;579467;245;65065;-69
2022/09/15 08:22:38;;;;;;;;;;;;;;;21.32;78.22;96581.42;584004;242;64678;-70
2022/09/15 08:25:06;;;;;;;;;;;;;;;21.33;78.29;96588.35;585272;242;67049;-71
2022/09/15 08:27:33;;;;;;;;;;;;;;;21.32;78.30;96592.11;585635;242;65996;-73
2022/09/15 08:30:01;;;;;;;;;;;;;;;21.33;78.31;96592.91;585633;242;67401;-70
2022/09/15 08:32:29;;;;;;;;;;;;;;;21.33;78.40;96583.00;585678;242;65006;-70
2022/09/15 08:34:56;;;;;;;;;;;;;;;21.34;78.30;96586.50;585646;242;65100;-69
2022/09/15 08:37:24;;;;;;;;;;;;;;;21.34;78.51;96589.17;585651;242;67262;-70
2022/09/15 08:39:51;;;;;;;;;;;;;;;21.33;78.54;96593.70;585633;242;67104;-71
2022/09/15 08:42:20;;;;;;;;;;;;;;;21.35;78.48;96593.42;585660;242;65112;-69
2022/09/15 08:44:49;;;;;;;;;;;;;;;21.34;78.47;96586.50;585677;242;66974;-71
2022/09/15 08:47:27;;;;;;;;;;;;;;;21.34;78.37;96589.17;585717;242;67653;-69
2022/09/15 08:50:02;;;;;;;;;;;;;;;21.33;78.33;96585.68;585672;242;65057;-71
2022/09/15 08:52:34;;;;;;;;;;;;;;;21.33;78.34;96585.68;585643;242;66780;-68
2022/09/15 08:55:03;;;;;;;;;;;;;;;21.34;78.36;96581.95;585668;242;64763;-70
2022/09/15 08:57:31;;;;;;;;;;;;;;;21.34;78.45;96581.95;585615;242;66313;-72
2022/09/15 08:59:58;;;;;;;;;;;;;;;21.35;78.44;96572.84;585620;242;64693;-71
2022/09/15 09:02:34;;;;;;;;;;;;;;;21.35;78.24;96578.18;585328;242;64828;-70
2022/09/15 09:05:15;;;;;;;;;;;;;;;21.36;78.33;96578.97;585134;242;64787;-69
2022/09/15 09:07:44;;;;;;;;;;;;;;;21.35;78.41;96575.51;576400;242;66922;-70
2022/09/15 09:10:30;;;;;;;;;;;;;;;21.36;78.42;96576.30;583536;242;66614;-71
2022/09/15 09:13:11;;;;;;;;;;;;;;;21.37;78.45;96576.06;585166;242;63001;-69
2022/09/15 09:15:57;;;;;;;;;;;;;;;21.36;78.54;96569.10;585205;242;64874;-69
2022/09/15 09:18:32;;;;;;;;;;;;;;;21.36;78.56;96569.10;585177;242;67020;-69
2022/09/15 09:21:04;;;;;;;;;;;;;;;21.37;78.60;96568.04;585001;242;65290;-69
2022/09/15 09:23:32;;;;;;;;;;;;;;;21.37;78.65;96560.02;585229;242;66969;-70
2022/09/15 09:26:05;;;;;;;;;;;;;;;21.37;78.66;96554.67;585179;242;64776;-72
2022/09/15 09:28:34;;;;;;;;;;;;;;;21.37;78.72;96557.34;585002;242;63062;-70
2022/09/15 09:31:06;;;;;;;;;;;;;;;21.37;78.73;96554.67;582505;242;66818;-69
2022/09/15 09:33:38;;;;;;;;;;;;;;;21.37;78.75;96560.02;572813;245;64750;-70
2022/09/15 09:36:07;;;;;;;;;;;;;;;21.37;78.77;96554.67;577792;245;65034;-70
2022/09/15 09:38:39;;;;;;;;;;;;;;;21.37;78.81;96557.34;575064;245;64395;-69
2022/09/15 09:41:11;;;;;;;;;;;;;;;21.38;78.76;96545.56;574117;245;66879;-69
2022/09/15 09:43:40;;;;;;;;;;;;;;;21.39;78.84;96549.03;569851;247;65151;-69
2022/09/15 09:46:13;;;;;;;;;;;;;;;21.38;78.88;96542.10;569986;249;67206;-70
2022/09/15 09:48:42;;;;;;;;;;;;;;;21.38;78.93;96542.10;569923;247;65896;-69
2022/09/15 09:51:28;;;;;;;;;;;;;;;21.38;79.02;96540.22;569994;249;63107;-68
2022/09/15 09:53:55;;;;;;;;;;;;;;;21.39;79.05;96532.98;569814;249;66896;-70
2022/09/15 09:56:24;;;;;;;;;;;;;;;21.38;79.11;96532.20;570010;249;66929;-71
2022/09/15 09:58:52;;;;;;;;;;;;;;;21.38;79.13;96526.85;569976;249;65080;-70
2022/09/15 10:01:20;;;;;;;;;;;;;;;21.39;79.14;96520.44;572639;242;66800;-72
2022/09/15 10:03:48;;;;;;;;;;;;;;;21.38;79.13;96513.48;579878;244;65614;-69
2022/09/15 10:06:22;;;;;;;;;;;;;;;21.39;79.23;96523.12;579800;244;64940;-69
2022/09/15 10:09:03;;;;;;;;;;;;;;;21.39;79.15;96522.30;579799;244;67013;-69
2022/09/15 10:11:40;;;;;;;;;;;;;;;21.40;79.21;96521.23;579827;244;66891;-69
2022/09/15 10:14:11;;;;;;;;;;;;;;;21.39;79.24;96520.44;579827;244;65031;-69
2022/09/15 10:16:38;;;;;;;;;;;;;;;21.39;79.28;96512.42;579662;244;67058;-69
2022/09/15 10:19:06;;;;;;;;;;;;;;;21.39;79.29;96515.09;579772;244;66874;-67
2022/09/15 10:21:33;;;;;;;;;;;;;;;21.40;79.31;96516.68;579806;244;62929;-67
2022/09/15 10:24:02;;;;;;;;;;;;;;;21.44;78.21;96511.55;579821;244;64664;-69
2022/09/15 10:26:34;;;;;;;;;;;;;;;21.43;75.64;96505.41;578820;244;64499;-69
2022/09/15 10:29:15;;;;;;;;;;;;;;;21.43;75.80;96494.72;579461;244;63085;-70
2022/09/15 10:31:43;;;;;;;;;;;;;;;21.43;76.43;96493.93;579408;242;66957;-70
2022/09/15 10:34:24;;;;;;;;;;;;;;;21.43;77.14;96492.05;579463;244;67065;-70
2022/09/15 10:36:53;;;;;;;;;;;;;;;21.43;77.32;96494.72;579488;244;63120;-73
2022/09/15 10:39:22;;;;;;;;;;;;;;;21.42;77.65;96495.81;579495;244;67027;-70
2022/09/15 10:41:54;;;;;;;;;;;;;;;21.42;77.62;96498.48;579045;244;66817;-71
2022/09/15 10:44:23;;;;;;;;;;;;;;;21.43;77.65;96500.06;578702;244;62966;-70
2022/09/15 10:46:55;;;;;;;;;;;;;;;21.44;77.72;96490.98;579482;244;64888;-71
2022/09/15 10:49:40;;;;;;;;;;;;;;;21.43;77.81;96489.38;579829;244;64856;-71
2022/09/15 10:52:13;;;;;;;;;;;;;;;21.43;77.97;96486.70;579776;244;65064;-70
2022/09/15 10:54:42;;;;;;;;;;;;;;;21.42;77.92;96487.00;579815;244;64400;-70
2022/09/15 10:57:14;;;;;;;;;;;;;;;21.43;77.94;96489.38;579801;244;66883;-71
2022/09/15 10:59:50;;;;;;;;;;;;;;;21.43;77.96;96485.91;579751;244;65166;-70
2022/09/15 11:02:25;;;;;;;;;;;;;;;21.43;78.03;96478.68;579817;244;67367;-72
2022/09/15 11:05:11;;;;;;;;;;;;;;;21.44;78.17;96479.47;579839;242;64803;-68
2022/09/15 11:07:46;;;;;;;;;;;;;;;21.47;77.87;96484.23;579795;244;65260;-73
2022/09/15 11:10:17;;;;;;;;;;;;;;;21.50;75.44;96494.39;579562;243;64822;-70
2022/09/15 11:12:47;;;;;;;;;;;;;;;21.52;75.55;96486.06;583616;239;66961;-70
2022/09/15 11:15:15;;;;;;;;;;;;;;;21.53;75.68;96493.02;586092;242;63171;-73
2022/09/15 11:17:54;;;;;;;;;;;;;;;21.55;76.46;96496.18;585895;242;64814;-71
2022/09/15 11:20:32;;;;;;;;;;;;;;;21.55;77.52;96485.48;586129;242;64775;-71
2022/09/15 11:23:01;;;;;;;;;;;;;;;21.55;78.11;96485.48;586092;242;62881;-71
2022/09/15 11:25:30;;;;;;;;;;;;;;;21.55;78.43;96485.48;585913;242;66936;-70
2022/09/15 11:27:59;;;;;;;;;;;;;;;21.57;78.60;96483.33;586109;242;66856;-71
2022/09/15 11:30:31;;;;;;;;;;;;;;;21.56;78.69;96487.89;586110;242;65112;-71
2022/09/15 11:33:00;;;;;;;;;;;;;;;21.57;78.77;96488.67;586060;242;67156;-71
2022/09/15 11:35:32;;;;;;;;;;;;;;;21.56;78.83;96481.75;586030;242;66896;-70
2022/09/15 11:38:01;;;;;;;;;;;;;;;21.56;78.95;96487.09;586086;242;63061;-71
2022/09/15 11:40:30;;;;;;;;;;;;;;;21.57;78.96;96486.80;585995;242;64861;-71
2022/09/15 11:43:02;;;;;;;;;;;;;;;21.56;78.85;96493.23;586097;242;66328;-70
2022/09/15 11:45:31;;;;;;;;;;;;;;;21.58;78.82;96500.95;586116;242;65105;-72
2022/09/15 11:48:00;;;;;;;;;;;;;;;21.58;78.89;96484.91;586047;242;66792;-70
2022/09/15 11:50:29;;;;;;;;;;;;;;;21.58;78.79;96488.41;585971;242;67009;-70
2022/09/15 11:53:01;;;;;;;;;;;;;;;21.58;78.80;96484.91;585902;242;65361;-67
2022/09/15 11:55:36;;;;;;;;;;;;;;;21.59;78.56;96491.87;586117;242;66717;-71
2022/09/15 11:58:12;;;;;;;;;;;;;;;21.58;75.71;96480.37;586109;239;66640;-71
2022/09/15 12:00:39;;;;;;;;;;;;;;;21.57;77.80;96480.66;586009;241;65160;-71
2022/09/15 12:03:24;;;;;;;;;;;;;;;21.56;78.75;96481.75;586128;242;66723;-71
2022/09/15 12:05:54;;;;;;;;;;;;;;;21.53;79.12;96477.77;586137;242;64758;-71
2022/09/15 12:08:22;;;;;;;;;;;;;;;21.52;79.11;96478.05;585892;242;63201;-70
2022/09/15 12:10:52;;;;;;;;;;;;;;;21.50;78.94;96479.14;586088;242;64587;-72
2022/09/15 12:13:21;;;;;;;;;;;;;;;21.50;78.75;96473.79;586057;242;67699;-72
2022/09/15 12:15:53;;;;;;;;;;;;;;;21.49;78.53;96488.22;585780;242;45871;-69
2022/09/15 12:18:24;;;;;;;;;;;;;;;21.49;78.41;96482.88;586121;242;65195;-69
2022/09/15 12:21:01;;;;;;;;;;;;;;;21.48;78.27;96481.30;586146;242;46628;-70
2022/09/15 12:23:39;;;;;;;;;;;;;;;21.49;78.21;96471.39;586048;242;64961;-72
2022/09/15 12:26:13;;;;;;;;;;;;;;;21.48;78.09;96475.16;586106;242;67028;-65
2022/09/15 12:28:40;;;;;;;;;;;;;;;21.48;78.05;96465.25;586004;242;66813;-67
2022/09/15 12:31:15;;;;;;;;;;;;;;;21.48;78.04;96464.47;585102;242;63106;-70
2022/09/15 12:33:44;;;;;;;;;;;;;;;21.48;77.90;96457.23;585732;242;66941;-67
2022/09/15 12:36:29;;;;;;;;;;;;;;;21.47;77.88;96462.86;586087;242;66901;-69
2022/09/15 12:38:57;;;;;;;;;;;;;;;21.48;77.81;96459.91;586037;242;65362;-67
2022/09/15 12:41:26;;;;;;;;;;;;;;;21.48;77.81;96467.14;586068;242;66946;-68
2022/09/15 12:44:02;;;;;;;;;;;;;;;21.47;77.65;96457.51;586060;242;66902;-67
2022/09/15 12:46:29;;;;;;;;;;;;;;;21.47;77.61;96455.66;585547;242;63035;-70
2022/09/15 12:49:00;;;;;;;;;;;;;;;21.47;77.48;96447.64;586040;242;67141;-69
2022/09/15 12:51:30;;;;;;;;;;;;;;;21.47;77.44;96434.27;586103;242;66812;-62
2022/09/15 12:54:06;;;;;;;;;;;;;;;21.47;77.34;96442.29;586086;242;62967;-69
2022/09/15 12:56:34;;;;;;;;;;;;;;;21.48;77.19;96448.42;586062;242;67231;-68
2022/09/15 12:59:06;;;;;;;;;;;;;;;21.48;77.02;96445.75;586067;242;66856;-67
2022/09/15 13:01:38;;;;;;;;;;;;;;;21.49;76.98;96444.66;582282;242;64812;-67